createdAt,value
2019-02-16T00:00:46.533Z,49.40
2019-02-16T00:03:34.848Z,49.50
2019-02-16T00:06:24.054Z,49.50
2019-02-16T00:09:12.390Z,49.50
2019-02-16T00:12:00.553Z,49.60
2019-02-16T00:14:48.841Z,49.60
2019-02-16T00:17:37.361Z,49.70
2019-02-16T00:20:25.485Z,49.80
2019-02-16T00:23:14.084Z,49.80
2019-02-16T00:26:02.416Z,49.90
2019-02-16T00:28:51.331Z,50.00
2019-02-16T00:31:40.014Z,50.00
2019-02-16T00:34:29.459Z,50.10
2019-02-16T00:37:18.699Z,50.10
2019-02-16T00:40:08.861Z,50.20
2019-02-16T00:42:57.451Z,50.20
2019-02-16T00:45:46.312Z,50.40
2019-02-16T00:48:34.612Z,50.40
2019-02-16T00:51:23.148Z,50.40
2019-02-16T00:54:11.814Z,50.50
2019-02-16T00:57:00.933Z,50.60
2019-02-16T00:59:49.254Z,50.60
2019-02-16T01:02:37.912Z,50.70
2019-02-16T01:05:26.589Z,50.80
2019-02-16T01:08:11.096Z,50.90
2019-02-16T01:10:59.311Z,51.50
2019-02-16T01:13:48.414Z,50.90
2019-02-16T01:16:36.953Z,51.10
2019-02-16T01:19:26.882Z,51.00
2019-02-16T01:22:15.253Z,51.00
2019-02-16T01:25:04.332Z,51.10
2019-02-16T01:27:52.847Z,51.20
2019-02-16T01:30:41.943Z,51.10
2019-02-16T01:33:30.497Z,51.10
2019-02-16T01:36:19.089Z,51.00
2019-02-16T01:39:08.115Z,51.10
2019-02-16T01:41:56.770Z,51.00
2019-02-16T01:44:45.531Z,51.00
2019-02-16T01:47:34.069Z,51.00
2019-02-16T01:50:22.430Z,51.00
2019-02-16T01:53:10.871Z,50.90
2019-02-16T01:55:59.938Z,50.90
2019-02-16T01:58:48.349Z,50.80
2019-02-16T02:01:36.928Z,50.90
2019-02-16T02:04:25.467Z,50.80
2019-02-16T02:07:13.543Z,50.80
2019-02-16T02:10:02.794Z,50.80
2019-02-16T02:12:51.755Z,50.80
2019-02-16T02:15:40.031Z,50.80
2019-02-16T02:18:28.750Z,50.80
2019-02-16T02:21:16.755Z,50.80
2019-02-16T02:24:05.722Z,50.90
2019-02-16T02:26:54.445Z,50.90
2019-02-16T02:29:43.983Z,50.90
2019-02-16T02:32:32.800Z,50.90
2019-02-16T02:35:21.023Z,51.00
2019-02-16T02:38:09.508Z,50.90
2019-02-16T02:40:57.991Z,51.00
2019-02-16T02:43:46.478Z,51.00
2019-02-16T02:46:35.179Z,51.00
2019-02-16T02:49:23.913Z,51.10
2019-02-16T02:52:12.623Z,51.10
2019-02-16T02:55:01.568Z,51.00
2019-02-16T02:57:49.913Z,51.10
2019-02-16T03:00:38.881Z,51.20
2019-02-16T03:03:27.226Z,51.20
2019-02-16T03:06:15.527Z,51.30
2019-02-16T03:09:05.187Z,51.30
2019-02-16T03:11:53.710Z,51.30
2019-02-16T03:14:42.224Z,51.30
2019-02-16T03:17:30.661Z,51.30
2019-02-16T03:20:18.883Z,51.20
2019-02-16T03:23:18.339Z,51.20
2019-02-16T03:26:34.141Z,51.20
2019-02-16T03:29:31.370Z,51.20
2019-02-16T03:32:23.449Z,51.10
2019-02-16T03:35:14.649Z,51.10
2019-02-16T03:38:11.894Z,51.00
2019-02-16T03:40:59.920Z,51.00
2019-02-16T03:43:30.605Z,50.90
2019-02-16T03:46:04.293Z,50.90
2019-02-16T03:48:52.958Z,50.90
2019-02-16T03:51:41.201Z,50.90
2019-02-16T03:54:29.685Z,50.90
2019-02-16T03:57:18.217Z,50.90
2019-02-16T04:00:09.568Z,50.90
2019-02-16T04:02:57.785Z,50.80
2019-02-16T04:05:46.550Z,50.80
2019-02-16T04:08:34.707Z,50.80
2019-02-16T04:11:22.990Z,50.90
2019-02-16T04:14:11.363Z,50.80
2019-02-16T04:16:59.471Z,50.90
2019-02-16T04:19:48.539Z,50.80
2019-02-16T04:22:37.451Z,50.90
2019-02-16T04:25:25.737Z,50.90
2019-02-16T04:28:14.502Z,50.90
2019-02-16T04:31:02.771Z,51.00
2019-02-16T04:33:51.118Z,51.00
2019-02-16T04:36:39.674Z,51.00
2019-02-16T04:39:28.040Z,51.00
2019-02-16T04:42:16.345Z,51.00
2019-02-16T04:45:06.005Z,51.10
2019-02-16T04:47:54.294Z,51.10
2019-02-16T04:50:42.598Z,51.10
2019-02-16T04:53:31.522Z,51.10
2019-02-16T04:56:19.958Z,51.20
2019-02-16T04:59:08.145Z,51.20
2019-02-16T05:01:56.646Z,51.30
2019-02-16T05:04:45.582Z,51.20
2019-02-16T05:07:33.954Z,51.20
2019-02-16T05:10:22.115Z,51.10
2019-02-16T05:13:10.502Z,51.10
2019-02-16T05:15:59.552Z,51.10
2019-02-16T05:18:48.320Z,51.10
2019-02-16T05:21:36.534Z,51.10
2019-02-16T05:24:25.165Z,51.00
2019-02-16T05:27:13.684Z,50.90
2019-02-16T05:30:02.162Z,50.90
2019-02-16T05:32:50.502Z,50.90
2019-02-16T05:35:39.816Z,50.90
2019-02-16T05:38:28.215Z,50.80
2019-02-16T05:41:16.888Z,50.80
2019-02-16T05:44:05.102Z,50.70
2019-02-16T05:46:53.877Z,50.80
2019-02-16T05:49:42.182Z,50.80
2019-02-16T05:52:30.512Z,50.80
2019-02-16T05:55:19.275Z,50.80
2019-02-16T05:58:07.866Z,50.80
2019-02-16T06:00:56.155Z,50.80
2019-02-16T06:03:45.115Z,50.80
2019-02-16T06:06:33.451Z,50.90
2019-02-16T06:09:21.886Z,51.00
2019-02-16T06:12:10.202Z,51.00
2019-02-16T06:14:59.130Z,51.00
2019-02-16T06:17:47.543Z,51.00
2019-02-16T06:20:36.048Z,51.10
2019-02-16T06:23:24.813Z,51.00
2019-02-16T06:26:13.328Z,51.10
2019-02-16T06:29:02.156Z,51.20
2019-02-16T06:31:50.816Z,51.30
2019-02-16T06:34:39.236Z,51.40
2019-02-16T06:37:27.784Z,51.60
2019-02-16T06:40:16.092Z,51.70
2019-02-16T06:43:04.633Z,51.80
2019-02-16T06:45:53.421Z,51.80
2019-02-16T06:48:42.042Z,51.70
2019-02-16T06:51:30.516Z,51.70
2019-02-16T06:54:19.197Z,51.60
2019-02-16T06:57:15.001Z,47.00
2019-02-16T07:00:05.278Z,50.10
2019-02-16T07:02:37.098Z,49.70
2019-02-16T07:05:25.252Z,49.50
2019-02-16T07:08:13.686Z,49.40
2019-02-16T07:11:02.393Z,49.30
2019-02-16T07:13:50.868Z,49.60
2019-02-16T07:16:41.400Z,49.90
2019-02-16T07:19:31.113Z,50.00
2019-02-16T07:22:19.408Z,49.90
2019-02-16T07:25:08.901Z,49.70
2019-02-16T07:27:57.264Z,49.60
2019-02-16T07:30:45.324Z,49.40
2019-02-16T07:33:33.514Z,49.40
2019-02-16T07:36:22.274Z,49.50
2019-02-16T07:39:10.914Z,49.40
2019-02-16T07:41:59.558Z,49.40
2019-02-16T07:44:58.428Z,49.80
2019-02-16T07:47:48.547Z,50.10
2019-02-16T07:50:38.764Z,50.10
2019-02-16T07:53:31.748Z,49.90
2019-02-16T07:56:24.446Z,49.60
2019-02-16T07:59:26.674Z,49.40
2019-02-16T08:02:16.766Z,49.00
2019-02-16T08:05:19.622Z,48.60
2019-02-16T08:08:12.144Z,48.50
2019-02-16T08:11:08.355Z,48.20
2019-02-16T08:13:58.344Z,48.00
2019-02-16T08:16:48.060Z,47.70
2019-02-16T08:19:47.196Z,47.60
2019-02-16T08:22:45.898Z,47.30
2019-02-16T08:25:35.852Z,46.70
2019-02-16T08:28:25.918Z,46.20
2019-02-16T08:31:18.788Z,46.00
2019-02-16T08:34:08.776Z,45.60
2019-02-16T08:37:02.268Z,45.50
2019-02-16T08:39:52.808Z,45.30
2019-02-16T08:42:51.809Z,45.20
2019-02-16T08:45:45.009Z,44.90
2019-02-16T08:48:35.055Z,44.70
2019-02-16T08:51:27.873Z,44.60
2019-02-16T08:54:17.594Z,44.40
2019-02-16T08:57:13.537Z,44.30
2019-02-16T09:00:19.597Z,44.20
2019-02-16T09:03:09.990Z,44.00
2019-02-16T09:06:11.982Z,43.80
2019-02-16T09:09:16.827Z,43.80
2019-02-16T09:12:07.094Z,43.70
2019-02-16T09:14:59.951Z,43.60
2019-02-16T09:17:52.394Z,43.40
2019-02-16T09:20:48.056Z,43.20
2019-02-16T09:23:59.195Z,43.10
2019-02-16T09:26:48.386Z,43.10
2019-02-16T09:29:38.883Z,42.90
2019-02-16T09:32:43.727Z,42.70
2019-02-16T09:35:33.891Z,42.60
2019-02-16T09:38:27.031Z,42.70
2019-02-16T09:41:29.373Z,42.70
2019-02-16T09:44:27.699Z,42.50
2019-02-16T09:47:20.467Z,41.90
2019-02-16T09:50:10.639Z,42.30
2019-02-16T09:53:03.440Z,42.30
2019-02-16T09:55:53.601Z,42.20
2019-02-16T09:58:43.685Z,42.30
2019-02-16T10:01:36.013Z,42.10
2019-02-16T10:04:28.599Z,42.00
2019-02-16T10:07:27.465Z,42.10
2019-02-16T10:10:17.287Z,42.20
2019-02-16T10:13:10.139Z,42.40
2019-02-16T10:16:02.803Z,42.30
2019-02-16T10:18:52.864Z,42.30
2019-02-16T10:21:45.671Z,42.50
2019-02-16T10:24:47.620Z,42.60
2019-02-16T10:27:49.347Z,42.70
2019-02-16T10:30:45.008Z,42.70
2019-02-16T10:33:34.983Z,42.80
2019-02-16T10:36:25.002Z,42.90
2019-02-16T10:39:25.011Z,43.00
2019-02-16T10:42:15.019Z,43.00
2019-02-16T10:45:05.956Z,43.20
2019-02-16T10:47:59.092Z,43.30
2019-02-16T10:50:49.537Z,43.20
2019-02-16T10:53:51.541Z,43.40
2019-02-16T10:56:56.152Z,43.50
2019-02-16T10:59:46.587Z,43.60
2019-02-16T11:02:39.175Z,43.80
2019-02-16T11:05:31.778Z,44.00
2019-02-16T11:08:27.762Z,43.90
2019-02-16T11:11:23.496Z,44.00
2019-02-16T11:14:16.166Z,44.10
2019-02-16T11:17:18.146Z,44.40
2019-02-16T11:20:26.103Z,44.30
2019-02-16T11:23:15.953Z,44.30
2019-02-16T11:26:09.146Z,44.30
2019-02-16T11:29:07.810Z,44.20
2019-02-16T11:31:58.215Z,44.20
2019-02-16T11:34:51.287Z,44.40
2019-02-16T11:37:41.496Z,44.40
2019-02-16T11:40:43.389Z,44.50
2019-02-16T11:43:33.678Z,44.50
2019-02-16T11:46:29.560Z,45.20
2019-02-16T11:49:19.638Z,44.70
2019-02-16T11:52:09.431Z,44.80
2019-02-16T11:55:08.553Z,44.90
2019-02-16T11:58:04.888Z,44.80
2019-02-16T12:01:10.885Z,45.00
2019-02-16T12:04:09.873Z,45.20
2019-02-16T12:07:02.457Z,45.30
2019-02-16T12:10:00.915Z,45.60
2019-02-16T12:13:06.869Z,45.50
2019-02-16T12:16:00.017Z,45.50
2019-02-16T12:18:52.421Z,45.80
2019-02-16T12:21:45.324Z,46.00
2019-02-16T12:24:41.030Z,46.00
2019-02-16T12:27:47.080Z,46.00
2019-02-16T12:30:51.685Z,46.10
2019-02-16T12:33:41.773Z,46.40
2019-02-16T12:36:37.749Z,46.40
2019-02-16T12:39:28.292Z,46.40
2019-02-16T12:42:18.357Z,46.30
2019-02-16T12:45:11.053Z,46.30
2019-02-16T12:48:01.136Z,46.20
2019-02-16T12:50:54.176Z,46.20
2019-02-16T12:53:55.935Z,46.30
2019-02-16T12:56:45.762Z,46.30
2019-02-16T12:59:53.939Z,46.30
2019-02-16T13:02:46.977Z,46.30
2019-02-16T13:05:52.237Z,46.30
2019-02-16T13:08:42.024Z,46.20
2019-02-16T13:11:34.383Z,46.00
2019-02-16T13:14:40.743Z,45.90
2019-02-16T13:17:33.882Z,45.80
2019-02-16T13:20:29.825Z,46.20
2019-02-16T13:23:22.357Z,46.30
2019-02-16T13:26:21.406Z,46.10
2019-02-16T13:29:11.158Z,46.00
2019-02-16T13:32:01.253Z,46.30
2019-02-16T13:35:09.364Z,46.30
2019-02-16T13:38:02.513Z,46.50
2019-02-16T13:40:55.468Z,46.50
2019-02-16T13:43:45.313Z,46.60
2019-02-16T13:46:52.243Z,46.60
2019-02-16T13:49:45.263Z,46.60
2019-02-16T13:52:35.534Z,46.70
2019-02-16T13:55:36.199Z,46.80
2019-02-16T13:58:44.072Z,46.80
2019-02-16T14:01:36.590Z,47.40
2019-02-16T14:04:29.455Z,46.90
2019-02-16T14:07:19.910Z,46.80
2019-02-16T14:10:18.811Z,47.00
2019-02-16T14:13:14.283Z,46.90
2019-02-16T14:16:04.584Z,46.90
2019-02-16T14:18:52.762Z,47.00
2019-02-16T14:21:42.018Z,47.00
2019-02-16T14:24:40.996Z,47.20
2019-02-16T14:27:30.289Z,46.80
2019-02-16T14:30:18.688Z,46.70
2019-02-16T14:33:07.196Z,46.60
2019-02-16T14:35:56.115Z,46.50
2019-02-16T14:38:48.691Z,46.50
2019-02-16T14:41:37.111Z,46.60
2019-02-16T14:44:25.520Z,46.50
2019-02-16T14:47:14.282Z,46.50
2019-02-16T14:50:02.597Z,46.40
2019-02-16T14:52:50.825Z,46.40
2019-02-16T14:55:39.413Z,46.90
2019-02-16T14:58:27.804Z,46.40
2019-02-16T15:01:16.858Z,46.50
2019-02-16T15:04:05.330Z,46.50
2019-02-16T15:06:54.167Z,46.50
2019-02-16T15:09:42.960Z,46.50
2019-02-16T15:12:31.388Z,46.50
2019-02-16T15:15:20.425Z,46.40
2019-02-16T15:18:08.698Z,46.50
2019-02-16T15:20:57.061Z,46.50
2019-02-16T15:23:45.478Z,46.60
2019-02-16T15:26:33.938Z,46.60
2019-02-16T15:29:22.394Z,46.60
2019-02-16T15:32:10.513Z,46.50
2019-02-16T15:34:59.390Z,46.60
2019-02-16T15:37:49.018Z,46.50
2019-02-16T15:40:37.390Z,46.50
2019-02-16T15:43:26.166Z,46.60
2019-02-16T15:46:14.734Z,46.60
2019-02-16T15:49:02.975Z,46.50
2019-02-16T15:51:51.269Z,46.50
2019-02-16T15:54:39.727Z,46.50
2019-02-16T15:57:28.081Z,46.50
2019-02-16T16:00:18.657Z,46.50
2019-02-16T16:03:08.800Z,46.50
2019-02-16T16:05:57.238Z,46.60
2019-02-16T16:08:50.128Z,46.70
2019-02-16T16:11:40.242Z,46.80
2019-02-16T16:14:33.375Z,46.70
2019-02-16T16:17:29.367Z,46.70
2019-02-16T16:20:22.217Z,46.70
2019-02-16T16:23:17.956Z,46.70
2019-02-16T16:26:19.805Z,46.70
2019-02-16T16:29:16.656Z,46.70
2019-02-16T16:32:06.591Z,46.80
2019-02-16T16:34:59.521Z,47.20
2019-02-16T16:37:55.496Z,47.50
2019-02-16T16:40:45.721Z,47.60
2019-02-16T16:43:41.628Z,47.40
2019-02-16T16:46:46.528Z,47.40
2019-02-16T16:49:36.585Z,47.30
2019-02-16T16:52:26.489Z,46.70
2019-02-16T16:55:19.554Z,47.20
2019-02-16T16:58:12.460Z,47.00
2019-02-16T17:01:11.217Z,47.10
2019-02-16T17:03:59.968Z,47.00
2019-02-16T17:07:01.849Z,47.00
2019-02-16T17:10:03.745Z,47.10
2019-02-16T17:12:57.062Z,47.20
2019-02-16T17:15:47.012Z,47.00
2019-02-16T17:18:36.818Z,46.90
2019-02-16T17:21:36.100Z,47.10
2019-02-16T17:24:28.968Z,47.00
2019-02-16T17:27:18.763Z,47.30
2019-02-16T17:30:14.161Z,47.30
2019-02-16T17:33:13.616Z,47.30
2019-02-16T17:36:06.513Z,47.20
2019-02-16T17:39:11.018Z,47.20
2019-02-16T17:42:19.152Z,47.30
2019-02-16T17:45:20.592Z,47.00
2019-02-16T17:48:28.864Z,47.10
2019-02-16T17:51:34.751Z,47.00
2019-02-16T17:54:30.326Z,47.00
2019-02-16T17:57:32.603Z,47.20
2019-02-16T18:00:22.440Z,46.80
2019-02-16T18:03:28.767Z,46.70
2019-02-16T18:06:36.971Z,46.80
2019-02-16T18:09:35.477Z,46.90
2019-02-16T18:12:34.472Z,47.00
2019-02-16T18:15:25.147Z,47.00
2019-02-16T18:18:15.087Z,47.10
2019-02-16T18:21:04.903Z,47.10
2019-02-16T18:24:02.440Z,47.20
2019-02-16T18:27:04.358Z,47.10
2019-02-16T18:30:10.792Z,47.20
2019-02-16T18:33:19.052Z,47.30
2019-02-16T18:36:14.743Z,47.50
2019-02-16T18:39:08.129Z,47.60
2019-02-16T18:42:13.091Z,47.70
2019-02-16T18:45:02.884Z,47.80
2019-02-16T18:47:55.989Z,47.80
2019-02-16T18:50:45.979Z,47.90
2019-02-16T18:53:36.242Z,47.90
2019-02-16T18:56:29.030Z,48.00
2019-02-16T18:59:21.818Z,48.00
2019-02-16T19:02:24.235Z,48.10
2019-02-16T19:04:59.113Z,48.20
2019-02-16T19:07:49.157Z,48.30
2019-02-16T19:10:39.334Z,48.30
2019-02-16T19:13:41.273Z,48.40
2019-02-16T19:16:47.059Z,48.40
2019-02-16T19:19:48.920Z,48.40
2019-02-16T19:22:38.568Z,48.40
2019-02-16T19:25:44.923Z,48.50
2019-02-16T19:28:35.158Z,48.50
2019-02-16T19:31:43.061Z,48.40
2019-02-16T19:34:38.712Z,48.40
2019-02-16T19:37:46.881Z,48.40
2019-02-16T19:40:36.563Z,48.40
2019-02-16T19:43:29.341Z,48.30
2019-02-16T19:46:35.897Z,48.20
2019-02-16T19:49:26.005Z,48.20
2019-02-16T19:52:15.810Z,48.20
2019-02-16T19:55:22.490Z,48.20
2019-02-16T19:58:12.648Z,48.20
2019-02-16T20:01:03.281Z,48.00
2019-02-16T20:03:54.080Z,48.00
2019-02-16T20:06:44.301Z,48.10
2019-02-16T20:09:39.793Z,48.20
2019-02-16T20:12:29.747Z,48.20
2019-02-16T20:15:22.525Z,48.30
2019-02-16T20:18:12.836Z,48.30
2019-02-16T20:21:11.359Z,48.40
2019-02-16T20:24:06.134Z,48.50
2019-02-16T20:27:02.683Z,48.50
2019-02-16T20:29:55.635Z,48.60
2019-02-16T20:32:54.339Z,48.70
2019-02-16T20:35:50.244Z,48.70
2019-02-16T20:38:40.093Z,48.70
2019-02-16T20:41:30.388Z,48.80
2019-02-16T20:44:20.513Z,48.80
2019-02-16T20:47:16.153Z,48.90
2019-02-16T20:50:24.171Z,48.80
2019-02-16T20:53:14.448Z,48.90
2019-02-16T20:56:11.222Z,48.90
2019-02-16T20:59:07.086Z,48.90
2019-02-16T21:02:09.476Z,48.90
2019-02-16T21:05:11.663Z,48.90
2019-02-16T21:08:10.627Z,48.90
2019-02-16T21:11:06.228Z,48.90
2019-02-16T21:13:56.490Z,48.90
2019-02-16T21:16:46.978Z,49.00
2019-02-16T21:19:36.939Z,49.00
2019-02-16T21:22:33.056Z,49.00
2019-02-16T21:25:23.701Z,49.00
2019-02-16T21:28:13.335Z,49.10
2019-02-16T21:31:03.454Z,49.00
2019-02-16T21:34:10.337Z,49.00
2019-02-16T21:37:00.329Z,49.00
2019-02-16T21:39:58.882Z,49.10
2019-02-16T21:43:00.797Z,49.20
2019-02-16T21:45:52.226Z,49.20
2019-02-16T21:48:42.589Z,49.20
2019-02-16T21:51:44.892Z,49.30
2019-02-16T21:54:51.620Z,49.30
2019-02-16T21:57:44.241Z,49.40
2019-02-16T22:00:37.996Z,49.50
2019-02-16T22:03:28.369Z,49.50
2019-02-16T22:06:34.863Z,49.60
2019-02-16T22:09:28.063Z,49.70
2019-02-16T22:12:18.110Z,49.70
2019-02-16T22:15:09.630Z,49.70
2019-02-16T22:17:58.736Z,49.80
2019-02-16T22:20:47.545Z,49.80
2019-02-16T22:23:35.976Z,49.90
2019-02-16T22:26:25.009Z,49.90
2019-02-16T22:29:13.323Z,49.90
2019-02-16T22:32:02.312Z,50.10
2019-02-16T22:34:51.235Z,50.10
2019-02-16T22:37:39.452Z,50.20
2019-02-16T22:40:28.000Z,50.30
2019-02-16T22:43:16.018Z,50.30
2019-02-16T22:46:04.829Z,50.40
2019-02-16T22:48:53.429Z,50.40
2019-02-16T22:51:41.954Z,50.50
2019-02-16T22:54:30.742Z,50.60
2019-02-16T22:57:18.924Z,50.60
2019-02-16T23:00:13.721Z,50.70
2019-02-16T23:03:02.295Z,50.70
2019-02-16T23:05:50.875Z,50.70
2019-02-16T23:08:39.095Z,50.90
2019-02-16T23:11:27.919Z,51.00
2019-02-16T23:14:17.536Z,51.10
2019-02-16T23:17:06.149Z,51.10
2019-02-16T23:19:54.382Z,51.10
2019-02-16T23:22:42.884Z,51.20
2019-02-16T23:25:31.328Z,51.20
2019-02-16T23:28:20.465Z,51.30
2019-02-16T23:31:08.970Z,51.30
2019-02-16T23:33:57.246Z,51.30
2019-02-16T23:36:45.539Z,51.30
2019-02-16T23:39:33.914Z,51.30
2019-02-16T23:42:22.714Z,51.40
2019-02-16T23:45:11.507Z,51.40
2019-02-16T23:48:00.215Z,51.40
2019-02-16T23:50:48.687Z,51.50
2019-02-16T23:53:37.114Z,51.50
2019-02-16T23:56:25.856Z,51.50
2019-02-16T23:59:14.313Z,51.60
